createdAt,value
2018-08-20T00:02:07.102Z,7.93
2018-08-20T00:04:41.108Z,8.77
2018-08-20T00:07:10.011Z,9.00
2018-08-20T00:09:44.948Z,8.50
2018-08-20T00:12:13.778Z,9.10
2018-08-20T00:14:42.629Z,9.27
2018-08-20T00:17:11.494Z,8.50
2018-08-20T00:19:41.168Z,9.23
2018-08-20T00:22:10.482Z,8.90
2018-08-20T00:24:39.250Z,9.20
2018-08-20T00:27:08.191Z,8.93
2018-08-20T00:29:38.510Z,9.17
2018-08-20T00:32:07.504Z,8.83
2018-08-20T00:34:36.390Z,9.00
2018-08-20T00:37:05.258Z,9.13
2018-08-20T00:39:34.216Z,8.87
2018-08-20T00:42:03.096Z,9.03
2018-08-20T00:44:32.666Z,8.70
2018-08-20T00:47:02.494Z,9.33
2018-08-20T00:49:31.402Z,8.50
2018-08-20T00:52:00.278Z,10.50
2018-08-20T00:54:29.216Z,9.20
2018-08-20T00:56:58.074Z,10.20
2018-08-20T00:59:26.922Z,10.90
2018-08-20T01:01:55.833Z,9.47
2018-08-20T01:04:27.037Z,9.53
2018-08-20T01:06:55.942Z,9.23
2018-08-20T01:09:24.799Z,9.90
2018-08-20T01:11:53.680Z,9.63
2018-08-20T01:14:22.672Z,9.93
2018-08-20T01:16:51.508Z,9.53
2018-08-20T01:19:20.926Z,9.27
2018-08-20T01:21:49.983Z,10.00
2018-08-20T01:24:18.849Z,9.83
2018-08-20T01:26:48.225Z,9.60
2018-08-20T01:29:17.157Z,10.13
2018-08-20T01:31:46.151Z,9.40
2018-08-20T01:34:15.805Z,9.13
2018-08-20T01:36:45.262Z,9.47
2018-08-20T01:39:14.146Z,8.63
2018-08-20T01:41:42.954Z,8.73
2018-08-20T01:44:11.874Z,8.90
2018-08-20T01:46:40.750Z,9.03
2018-08-20T01:49:10.233Z,8.80
2018-08-20T01:51:39.594Z,8.30
2018-08-20T01:54:08.365Z,8.67
2018-08-20T01:56:38.171Z,8.30
2018-08-20T01:59:07.063Z,7.80
2018-08-20T02:01:35.983Z,8.63
2018-08-20T02:04:04.879Z,9.00
2018-08-20T02:06:33.873Z,9.27
2018-08-20T02:09:02.790Z,9.13
2018-08-20T02:11:31.605Z,9.40
2018-08-20T02:14:00.554Z,9.50
2018-08-20T02:16:30.095Z,8.87
2018-08-20T02:18:58.878Z,9.93
2018-08-20T02:21:28.385Z,9.80
2018-08-20T02:23:57.290Z,8.93
2018-08-20T02:26:26.284Z,9.00
2018-08-20T02:28:55.869Z,9.23
2018-08-20T02:31:24.739Z,9.23
2018-08-20T02:33:53.749Z,9.60
2018-08-20T02:36:22.559Z,10.13
2018-08-20T02:38:52.048Z,9.50
2018-08-20T02:41:20.973Z,9.67
2018-08-20T02:43:49.913Z,8.90
2018-08-20T02:46:28.605Z,8.60
2018-08-20T02:48:57.407Z,9.17
2018-08-20T02:51:26.210Z,8.10
2018-08-20T02:53:55.070Z,8.70
2018-08-20T02:56:24.001Z,9.30
2018-08-20T02:58:52.957Z,8.70
2018-08-20T03:01:21.834Z,8.87
2018-08-20T03:03:50.609Z,9.00
2018-08-20T03:06:20.563Z,8.93
2018-08-20T03:08:49.482Z,8.77
2018-08-20T03:11:18.323Z,9.10
2018-08-20T03:13:47.417Z,9.97
2018-08-20T03:16:16.290Z,9.10
2018-08-20T03:18:45.067Z,9.30
2018-08-20T03:21:13.870Z,8.70
2018-08-20T03:23:42.759Z,9.53
2018-08-20T03:26:11.636Z,8.60
2018-08-20T03:28:41.054Z,8.30
2018-08-20T03:31:09.858Z,8.60
2018-08-20T03:33:39.068Z,8.60
2018-08-20T03:36:07.974Z,8.77
2018-08-20T03:38:36.964Z,7.73
2018-08-20T03:41:05.964Z,8.50
2018-08-20T03:43:34.841Z,9.43
2018-08-20T03:46:03.835Z,9.37
2018-08-20T03:48:32.702Z,8.60
2018-08-20T03:51:01.586Z,8.63
2018-08-20T03:53:30.490Z,9.10
2018-08-20T03:55:59.374Z,8.40
2018-08-20T03:58:28.793Z,8.83
2018-08-20T04:00:57.770Z,8.77
2018-08-20T04:03:26.661Z,9.30
2018-08-20T04:05:55.490Z,8.67
2018-08-20T04:08:24.966Z,9.30
2018-08-20T04:10:53.828Z,9.40
2018-08-20T04:13:22.680Z,8.77
2018-08-20T04:15:51.545Z,8.00
2018-08-20T04:18:21.055Z,8.53
2018-08-20T04:20:50.355Z,8.30
2018-08-20T04:23:19.825Z,8.67
2018-08-20T04:25:48.717Z,8.53
2018-08-20T04:28:18.234Z,9.20
2018-08-20T04:30:47.196Z,9.00
2018-08-20T04:33:16.072Z,9.63
2018-08-20T04:35:45.545Z,8.73
2018-08-20T04:38:14.452Z,8.43
2018-08-20T04:40:44.045Z,8.70
2018-08-20T04:43:12.994Z,8.63
2018-08-20T04:45:41.774Z,7.60
2018-08-20T04:48:10.680Z,7.50
2018-08-20T04:50:40.341Z,8.23
2018-08-20T04:53:09.172Z,7.50
2018-08-20T04:55:37.946Z,7.33
2018-08-20T04:58:06.838Z,7.00
2018-08-20T05:00:35.732Z,7.60
2018-08-20T05:03:05.587Z,6.97
2018-08-20T05:05:34.326Z,7.23
2018-08-20T05:08:03.217Z,6.53
2018-08-20T05:10:32.696Z,6.37
2018-08-20T05:13:01.550Z,6.70
2018-08-20T05:15:30.470Z,6.73
2018-08-20T05:17:59.461Z,6.40
2018-08-20T05:20:28.323Z,6.70
2018-08-20T05:22:57.175Z,6.93
2018-08-20T05:25:25.995Z,6.67
2018-08-20T05:27:54.905Z,6.70
2018-08-20T05:30:23.876Z,7.00
2018-08-20T05:32:52.678Z,6.50
2018-08-20T05:35:21.692Z,6.60
2018-08-20T05:37:50.492Z,7.03
2018-08-20T05:40:19.408Z,6.87
2018-08-20T05:42:48.135Z,7.17
2018-08-20T05:45:17.132Z,7.30
2018-08-20T05:47:46.138Z,7.30
2018-08-20T05:50:14.687Z,6.90
2018-08-20T05:52:43.515Z,7.57
2018-08-20T05:55:13.313Z,7.67
2018-08-20T05:57:42.341Z,7.90
2018-08-20T06:00:14.090Z,7.63
2018-08-20T06:02:43.024Z,7.30
2018-08-20T06:05:11.955Z,6.83
2018-08-20T06:07:41.852Z,8.00
2018-08-20T06:10:11.034Z,7.37
2018-08-20T06:12:39.878Z,7.30
2018-08-20T06:15:11.529Z,7.40
2018-08-20T06:17:40.746Z,7.37
2018-08-20T06:20:12.599Z,6.70
2018-08-20T06:22:41.928Z,6.60
2018-08-20T06:25:12.097Z,7.10
2018-08-20T06:27:41.473Z,6.30
2018-08-20T06:30:13.755Z,6.30
2018-08-20T06:32:42.850Z,6.40
2018-08-20T06:35:12.207Z,6.47
2018-08-20T06:37:42.033Z,6.57
2018-08-20T06:40:13.007Z,6.20
2018-08-20T06:42:41.958Z,6.33
2018-08-20T06:45:15.441Z,6.20
2018-08-20T06:47:45.208Z,5.40
2018-08-20T06:50:14.764Z,6.53
2018-08-20T06:52:44.600Z,5.83
2018-08-20T06:55:14.941Z,6.10
2018-08-20T06:57:45.127Z,5.90
2018-08-20T07:00:14.713Z,6.07
2018-08-20T07:02:43.624Z,5.73
2018-08-20T07:05:12.463Z,5.97
2018-08-20T07:07:42.394Z,6.30
2018-08-20T07:10:13.389Z,6.20
2018-08-20T07:12:42.547Z,6.10
2018-08-20T07:15:13.770Z,6.70
2018-08-20T07:17:42.571Z,6.40
2018-08-20T07:20:13.045Z,5.97
2018-08-20T07:22:42.030Z,6.93
2018-08-20T07:25:10.990Z,5.70
2018-08-20T07:27:39.833Z,6.17
2018-08-20T07:30:10.798Z,5.53
2018-08-20T07:32:39.729Z,6.00
2018-08-20T07:35:08.586Z,5.87
2018-08-20T07:37:37.543Z,5.40
2018-08-20T07:40:07.560Z,6.10
2018-08-20T07:42:36.544Z,5.10
2018-08-20T07:45:05.522Z,4.87
2018-08-20T07:47:35.156Z,5.57
2018-08-20T07:50:04.087Z,5.50
2018-08-20T07:52:33.134Z,4.70
2018-08-20T07:55:02.054Z,5.00
2018-08-20T07:57:31.885Z,4.33
2018-08-20T08:00:00.834Z,4.80
2018-08-20T08:02:29.763Z,4.60
2018-08-20T08:04:58.539Z,4.80
2018-08-20T08:07:27.869Z,4.67
2018-08-20T08:09:56.837Z,4.40
2018-08-20T08:12:25.745Z,4.37
2018-08-20T08:14:54.561Z,3.80
2018-08-20T08:17:23.563Z,3.70
2018-08-20T08:19:52.469Z,4.40
2018-08-20T08:22:21.177Z,3.70
2018-08-20T08:24:50.013Z,3.60
2018-08-20T08:27:18.919Z,3.90
2018-08-20T08:29:47.767Z,3.70
2018-08-20T08:32:16.762Z,4.47
2018-08-20T08:34:45.616Z,4.03
2018-08-20T08:37:14.726Z,3.90
2018-08-20T08:39:43.753Z,4.17
2018-08-20T08:42:12.576Z,3.97
2018-08-20T08:44:41.506Z,4.03
2018-08-20T08:47:10.351Z,4.00
2018-08-20T08:49:39.257Z,3.77
2018-08-20T08:52:08.126Z,3.50
2018-08-20T08:54:37.131Z,3.57
2018-08-20T08:57:06.257Z,3.27
2018-08-20T08:59:35.218Z,3.50
2018-08-20T09:02:04.061Z,3.37
2018-08-20T09:04:32.858Z,3.13
2018-08-20T09:07:01.849Z,3.17
2018-08-20T09:09:30.682Z,3.43
2018-08-20T09:11:59.571Z,4.10
2018-08-20T09:14:28.458Z,3.10
2018-08-20T09:16:57.301Z,3.13
2018-08-20T09:19:26.267Z,3.30
2018-08-20T09:21:55.265Z,3.37
2018-08-20T09:24:24.618Z,3.07
2018-08-20T09:26:53.429Z,3.30
2018-08-20T09:29:22.253Z,3.30
2018-08-20T09:31:51.487Z,3.40
2018-08-20T09:34:20.281Z,3.30
2018-08-20T09:36:49.850Z,3.67
2018-08-20T09:39:18.476Z,3.20
2018-08-20T09:41:47.252Z,3.80
2018-08-20T09:44:16.070Z,3.53
2018-08-20T09:46:44.853Z,3.67
2018-08-20T09:49:13.771Z,3.10
2018-08-20T09:51:43.141Z,3.90
2018-08-20T09:54:11.867Z,3.53
2018-08-20T09:56:40.706Z,3.47
2018-08-20T09:59:09.556Z,3.60
2018-08-20T10:01:38.344Z,3.73
2018-08-20T10:04:07.198Z,3.50
2018-08-20T10:06:36.007Z,3.60
2018-08-20T10:09:05.987Z,3.47
2018-08-20T10:11:35.488Z,3.70
2018-08-20T10:14:05.021Z,3.30
2018-08-20T10:16:33.790Z,3.50
2018-08-20T10:19:02.646Z,3.57
2018-08-20T10:21:31.451Z,3.40
2018-08-20T10:24:00.203Z,3.10
2018-08-20T10:26:28.872Z,3.90
2018-08-20T10:28:57.670Z,3.60
2018-08-20T10:31:26.410Z,3.40
2018-08-20T10:33:55.391Z,3.93
2018-08-20T10:36:24.882Z,3.50
2018-08-20T10:38:53.746Z,3.43
2018-08-20T10:41:22.607Z,3.63
2018-08-20T10:43:51.683Z,3.80
2018-08-20T10:46:25.456Z,3.87
2018-08-20T10:48:55.498Z,3.50
2018-08-20T10:51:24.446Z,4.03
2018-08-20T10:53:53.469Z,3.53
2018-08-20T10:56:22.555Z,3.60
2018-08-20T10:58:51.434Z,3.77
2018-08-20T11:01:20.533Z,3.50
2018-08-20T11:03:54.623Z,3.30
2018-08-20T11:06:23.669Z,3.40
2018-08-20T11:08:52.786Z,3.40
2018-08-20T11:11:21.715Z,3.83
2018-08-20T11:13:50.556Z,4.13
2018-08-20T11:16:19.479Z,3.90
2018-08-20T11:18:49.361Z,3.37
2018-08-20T11:21:18.010Z,3.73
2018-08-20T11:23:46.797Z,3.70
2018-08-20T11:26:15.569Z,3.60
2018-08-20T11:28:44.436Z,3.60
2018-08-20T11:31:13.201Z,3.17
2018-08-20T11:33:41.939Z,3.17
2018-08-20T11:36:11.362Z,3.20
2018-08-20T11:38:40.212Z,3.20
2018-08-20T11:41:09.119Z,3.60
2018-08-20T11:43:38.070Z,3.80
2018-08-20T11:46:07.324Z,3.33
2018-08-20T11:48:36.282Z,3.03
2018-08-20T11:51:05.165Z,3.10
2018-08-20T11:53:34.144Z,3.50
2018-08-20T11:56:03.134Z,3.23
2018-08-20T11:58:32.394Z,3.37
2018-08-20T12:01:01.613Z,3.00
2018-08-20T12:03:31.116Z,3.50
2018-08-20T12:05:59.889Z,3.30
2018-08-20T12:08:28.810Z,3.50
2018-08-20T12:10:57.676Z,3.50
2018-08-20T12:13:27.265Z,3.67
2018-08-20T12:15:56.787Z,3.60
2018-08-20T12:18:25.629Z,3.50
2018-08-20T12:20:54.357Z,3.93
2018-08-20T12:23:25.265Z,3.90
2018-08-20T12:25:55.253Z,4.20
2018-08-20T12:28:24.096Z,4.00
2018-08-20T12:30:53.297Z,4.20
2018-08-20T12:33:22.076Z,3.90
2018-08-20T12:35:50.946Z,4.37
2018-08-20T12:38:19.705Z,3.80
2018-08-20T12:40:48.695Z,3.70
2018-08-20T12:43:17.486Z,3.40
2018-08-20T12:45:46.271Z,4.30
2018-08-20T12:48:15.210Z,3.70
2018-08-20T12:50:44.708Z,3.67
2018-08-20T12:53:13.482Z,3.40
2018-08-20T12:55:42.841Z,3.50
2018-08-20T12:58:11.609Z,3.30
2018-08-20T13:00:40.374Z,3.43
2018-08-20T13:03:09.196Z,3.50
2018-08-20T13:05:38.115Z,3.53
2018-08-20T13:08:06.866Z,3.63
2018-08-20T13:10:35.700Z,3.60
2018-08-20T13:13:04.488Z,3.87
2018-08-20T13:15:33.494Z,4.00
2018-08-20T13:18:02.365Z,3.97
2018-08-20T13:20:31.263Z,3.47
2018-08-20T13:23:01.298Z,4.47
2018-08-20T13:25:30.364Z,3.70
2018-08-20T13:27:59.827Z,3.97
2018-08-20T13:30:28.774Z,3.90
2018-08-20T13:32:57.530Z,3.87
2018-08-20T13:35:26.449Z,3.30
2018-08-20T13:37:55.421Z,3.70
2018-08-20T13:40:24.297Z,3.97
2018-08-20T13:42:53.214Z,4.20
2018-08-20T13:45:22.012Z,3.70
2018-08-20T13:47:50.889Z,3.73
2018-08-20T13:50:20.068Z,3.93
2018-08-20T13:52:48.874Z,3.60
2018-08-20T13:55:34.993Z,3.60
2018-08-20T13:58:03.853Z,3.70
2018-08-20T14:00:41.002Z,3.47
2018-08-20T14:03:10.282Z,3.53
2018-08-20T14:05:39.341Z,3.93
2018-08-20T14:08:08.525Z,3.43
2018-08-20T14:10:37.329Z,4.03
2018-08-20T14:13:07.302Z,4.93
2018-08-20T14:15:49.963Z,4.60
2018-08-20T14:18:21.036Z,4.47
2018-08-20T14:21:23.944Z,4.40
2018-08-20T14:23:52.916Z,4.37
2018-08-20T14:26:21.880Z,3.90
2018-08-20T14:28:50.702Z,4.63
2018-08-20T14:31:20.275Z,4.10
2018-08-20T14:33:49.162Z,3.97
2018-08-20T14:36:18.261Z,4.20
2018-08-20T14:38:47.103Z,4.50
2018-08-20T14:41:16.085Z,4.00
2018-08-20T14:43:45.020Z,4.57
2018-08-20T14:46:18.926Z,4.03
2018-08-20T14:48:47.781Z,4.30
2018-08-20T14:51:16.829Z,4.07
2018-08-20T14:53:45.758Z,4.10
2018-08-20T14:59:23.012Z,5.50
2018-08-20T15:02:01.792Z,5.57
2018-08-20T15:04:30.676Z,5.47
2018-08-20T15:07:03.256Z,5.67
2018-08-20T15:09:32.555Z,5.33
2018-08-20T15:12:01.489Z,5.67
2018-08-20T15:14:30.223Z,4.93
2018-08-20T15:16:59.114Z,4.80
2018-08-20T15:19:30.377Z,4.90
2018-08-20T15:21:59.229Z,4.67
2018-08-20T15:24:28.715Z,5.40
2018-08-20T15:26:57.658Z,5.20
2018-08-20T15:29:26.859Z,5.60
2018-08-20T15:31:56.136Z,5.40
2018-08-20T15:34:25.087Z,5.20
2018-08-20T15:36:54.075Z,5.43
2018-08-20T15:39:23.127Z,5.80
2018-08-20T15:41:52.819Z,5.50
2018-08-20T15:44:21.614Z,5.23
2018-08-20T15:46:51.181Z,5.27
2018-08-20T15:49:21.286Z,4.30
2018-08-20T15:51:50.182Z,4.40
2018-08-20T15:54:19.087Z,4.42
2018-08-20T15:56:47.988Z,4.40
2018-08-20T15:59:16.910Z,4.27
2018-08-20T16:01:45.910Z,4.70
2018-08-20T16:04:15.227Z,4.53
2018-08-20T16:06:44.141Z,4.43
2018-08-20T16:09:13.183Z,4.40
2018-08-20T16:11:42.091Z,4.30
2018-08-20T16:14:10.875Z,4.50
2018-08-20T16:16:39.739Z,4.40
2018-08-20T16:19:08.578Z,4.70
2018-08-20T16:21:37.547Z,4.50
2018-08-20T16:24:06.870Z,4.27
2018-08-20T16:26:35.787Z,4.33
2018-08-20T16:29:04.683Z,4.50
2018-08-20T16:31:33.664Z,4.13
2018-08-20T16:34:02.675Z,4.17
2018-08-20T16:36:31.475Z,4.60
2018-08-20T16:39:00.378Z,4.30
2018-08-20T16:41:29.216Z,4.50
2018-08-20T16:43:58.597Z,4.50
2018-08-20T16:46:27.817Z,4.93
2018-08-20T16:48:57.150Z,5.37
2018-08-20T16:51:26.092Z,4.83
2018-08-20T16:53:55.499Z,5.10
2018-08-20T16:56:24.315Z,4.57
2018-08-20T16:58:53.324Z,4.70
2018-08-20T17:01:22.301Z,5.43
2018-08-20T17:03:51.160Z,5.20
2018-08-20T17:06:19.969Z,4.97
2018-08-20T17:08:54.137Z,5.70
2018-08-20T17:11:23.590Z,5.60
2018-08-20T17:13:53.444Z,5.67
2018-08-20T17:16:22.427Z,5.93
2018-08-20T17:18:51.354Z,5.73
2018-08-20T17:21:20.399Z,5.17
2018-08-20T17:23:49.403Z,5.20
2018-08-20T17:26:18.475Z,5.40
2018-08-20T17:28:47.541Z,5.53
2018-08-20T17:31:24.194Z,5.93
2018-08-20T17:34:01.205Z,5.17
2018-08-20T17:36:30.716Z,5.40
2018-08-20T17:39:04.737Z,5.80
2018-08-20T17:41:33.775Z,5.47
2018-08-20T17:44:02.782Z,5.53
2018-08-20T17:46:31.882Z,5.70
2018-08-20T17:49:00.891Z,5.30
2018-08-20T17:51:29.812Z,5.50
2018-08-20T17:53:59.729Z,5.20
2018-08-20T17:56:28.798Z,10.10
2018-08-20T17:59:02.894Z,37.53
2018-08-20T18:01:38.281Z,9.90
2018-08-20T18:04:07.648Z,5.20
2018-08-20T18:06:48.011Z,5.30
2018-08-20T18:12:09.864Z,5.53
2018-08-20T18:14:38.853Z,6.40
2018-08-20T18:17:07.583Z,6.37
2018-08-20T18:19:36.447Z,6.60
2018-08-20T18:22:05.344Z,6.27
2018-08-20T18:24:34.283Z,5.73
2018-08-20T18:27:03.289Z,5.60
2018-08-20T18:29:32.342Z,5.90
2018-08-20T18:32:02.910Z,5.60
2018-08-20T18:34:31.791Z,6.07
2018-08-20T18:37:04.339Z,5.77
2018-08-20T18:39:33.242Z,6.20
2018-08-20T18:42:05.096Z,6.83
2018-08-20T18:44:56.916Z,7.00
2018-08-20T18:47:25.833Z,6.50
2018-08-20T18:49:58.165Z,6.57
2018-08-20T18:52:29.687Z,5.93
2018-08-20T18:54:59.457Z,6.00
2018-08-20T18:57:30.804Z,5.80
2018-08-20T19:00:02.217Z,5.73
2018-08-20T19:02:42.928Z,5.97
2018-08-20T19:05:13.570Z,6.80
2018-08-20T19:10:51.514Z,5.70
2018-08-20T19:13:20.427Z,5.87
2018-08-20T19:15:59.876Z,5.90
2018-08-20T19:18:35.364Z,6.20
2018-08-20T19:21:09.508Z,6.20
2018-08-20T19:23:38.519Z,6.20
2018-08-20T19:26:07.452Z,5.80
2018-08-20T19:28:36.501Z,6.10
2018-08-20T19:31:06.098Z,6.77
2018-08-20T19:33:35.152Z,6.00
2018-08-20T19:36:04.363Z,6.17
2018-08-20T19:38:33.974Z,6.10
2018-08-20T19:41:08.209Z,6.37
2018-08-20T19:43:52.255Z,6.50
2018-08-20T19:46:31.286Z,6.10
2018-08-20T19:49:08.510Z,5.50
2018-08-20T19:51:39.178Z,5.73
2018-08-20T19:54:09.302Z,6.20
2018-08-20T19:56:38.596Z,5.93
2018-08-20T19:59:07.837Z,6.00
2018-08-20T20:01:36.888Z,6.27
2018-08-20T20:04:05.932Z,5.90
2018-08-20T20:06:34.889Z,5.37
2018-08-20T20:09:09.518Z,5.30
2018-08-20T20:11:42.639Z,5.77
2018-08-20T20:14:11.837Z,5.73
2018-08-20T20:16:45.833Z,5.90
2018-08-20T20:19:14.708Z,6.30
2018-08-20T20:21:43.967Z,6.00
2018-08-20T20:24:13.424Z,5.20
2018-08-20T20:26:42.267Z,5.90
2018-08-20T20:29:11.756Z,6.97
2018-08-20T20:31:41.631Z,6.37
2018-08-20T20:34:10.734Z,5.47
2018-08-20T20:36:39.661Z,6.10
2018-08-20T20:39:10.277Z,7.40
2018-08-20T20:41:39.277Z,6.33
2018-08-20T20:44:08.843Z,6.00
2018-08-20T20:46:39.403Z,5.50
2018-08-20T20:49:08.365Z,15.27
2018-08-20T20:51:37.250Z,10.67
2018-08-20T20:54:06.269Z,6.40
2018-08-20T20:56:35.488Z,6.07
2018-08-20T20:59:05.130Z,6.83
2018-08-20T21:01:33.975Z,7.10
2018-08-20T21:04:05.346Z,6.73
2018-08-20T21:06:38.297Z,6.40
2018-08-20T21:09:12.936Z,7.10
2018-08-20T21:11:42.552Z,6.00
2018-08-20T21:14:12.480Z,5.90
2018-08-20T21:16:41.620Z,6.07
2018-08-20T21:19:10.574Z,4.97
2018-08-20T21:21:39.432Z,4.97
2018-08-20T21:24:08.757Z,5.70
2018-08-20T21:26:37.816Z,5.30
2018-08-20T21:29:06.662Z,4.97
2018-08-20T21:31:42.550Z,5.90
2018-08-20T21:34:11.572Z,5.00
2018-08-20T21:36:40.502Z,5.40
2018-08-20T21:39:10.031Z,5.67
2018-08-20T21:41:39.044Z,6.23
2018-08-20T21:44:08.599Z,5.77
2018-08-20T21:46:37.558Z,6.00
2018-08-20T21:49:07.066Z,8.17
2018-08-20T21:51:42.372Z,5.87
2018-08-20T21:54:11.282Z,6.43
2018-08-20T21:56:51.154Z,9.03
2018-08-20T21:59:20.768Z,6.30
2018-08-20T22:01:49.712Z,5.10
2018-08-20T22:04:19.896Z,7.07
2018-08-20T22:06:49.380Z,10.47
2018-08-20T22:09:18.339Z,14.77
2018-08-20T22:11:47.405Z,6.50
2018-08-20T22:14:16.313Z,18.83
2018-08-20T22:16:45.334Z,8.57
2018-08-20T22:19:14.235Z,15.93
2018-08-20T22:24:36.404Z,14.97
2018-08-20T22:27:06.397Z,13.93
2018-08-20T22:29:40.477Z,25.30
2018-08-20T22:32:10.161Z,7.43
2018-08-20T22:34:39.209Z,11.53
2018-08-20T22:37:08.954Z,7.00
2018-08-20T22:39:37.894Z,6.87
2018-08-20T22:42:06.761Z,9.67
2018-08-20T22:44:35.739Z,10.00
2018-08-20T22:47:05.641Z,16.10
2018-08-20T22:49:34.536Z,7.50
2018-08-20T22:52:03.491Z,8.00
2018-08-20T22:54:32.391Z,10.20
2018-08-20T22:57:01.443Z,11.03
2018-08-20T22:59:30.313Z,8.07
2018-08-20T23:01:59.126Z,7.00
2018-08-20T23:04:28.803Z,6.67
2018-08-20T23:07:00.744Z,7.67
2018-08-20T23:09:32.587Z,6.97
2018-08-20T23:12:02.446Z,7.70
2018-08-20T23:14:32.111Z,5.53
2018-08-20T23:17:00.984Z,7.13
2018-08-20T23:19:31.486Z,8.17
2018-08-20T23:22:00.358Z,11.37
2018-08-20T23:24:29.105Z,6.40
2018-08-20T23:26:58.066Z,10.40
2018-08-20T23:29:26.981Z,10.90
2018-08-20T23:31:55.975Z,8.80
2018-08-20T23:34:24.977Z,6.40
2018-08-20T23:36:53.741Z,5.60
2018-08-20T23:39:22.677Z,5.37
2018-08-20T23:41:51.669Z,6.20
2018-08-20T23:44:21.230Z,5.60
2018-08-20T23:46:51.130Z,6.50
2018-08-20T23:49:20.363Z,5.77
2018-08-20T23:51:49.279Z,5.60
2018-08-20T23:54:18.085Z,6.13
2018-08-20T23:56:47.034Z,6.07
2018-08-20T23:59:16.524Z,5.50
